createdAt,value
2017-12-21T00:00:20.103Z,42.68
2017-12-21T00:00:52.112Z,42.48
2017-12-21T00:01:24.106Z,42.48
2017-12-21T00:01:56.213Z,42.48
2017-12-21T00:02:28.251Z,42.58
2017-12-21T00:03:00.288Z,42.48
2017-12-21T00:03:32.361Z,42.68
2017-12-21T00:04:04.334Z,42.68
2017-12-21T00:04:36.315Z,42.58
2017-12-21T00:05:08.315Z,42.48
2017-12-21T00:05:40.900Z,42.58
2017-12-21T00:06:12.885Z,42.58
2017-12-21T00:06:44.913Z,42.58
2017-12-21T00:07:16.914Z,42.48
2017-12-21T00:07:48.915Z,42.58
2017-12-21T00:08:20.904Z,42.68
2017-12-21T00:08:53.001Z,42.68
2017-12-21T00:09:24.994Z,42.58
2017-12-21T00:09:57.028Z,42.58
2017-12-21T00:10:29.060Z,42.58
2017-12-21T00:11:01.099Z,42.48
2017-12-21T00:11:33.098Z,42.68
2017-12-21T00:12:05.111Z,42.68
2017-12-21T00:12:37.135Z,42.58
2017-12-21T00:13:09.175Z,42.68
2017-12-21T00:13:41.142Z,42.68
2017-12-21T00:14:13.672Z,42.68
2017-12-21T00:14:45.644Z,42.58
2017-12-21T00:15:17.677Z,42.68
2017-12-21T00:15:49.678Z,42.77
2017-12-21T00:16:21.719Z,42.58
2017-12-21T00:16:53.737Z,42.77
2017-12-21T00:17:25.761Z,42.39
2017-12-21T00:17:57.780Z,42.68
2017-12-21T00:18:29.857Z,42.48
2017-12-21T00:19:01.983Z,42.68
2017-12-21T00:19:33.974Z,42.58
2017-12-21T00:20:05.948Z,42.58
2017-12-21T00:20:37.996Z,42.68
2017-12-21T00:21:10.048Z,42.68
2017-12-21T00:21:42.051Z,42.48
2017-12-21T00:22:14.064Z,42.58
2017-12-21T00:22:46.094Z,42.77
2017-12-21T00:23:18.092Z,42.58
2017-12-21T00:23:50.119Z,42.68
2017-12-21T00:24:22.122Z,42.68
2017-12-21T00:24:54.157Z,42.58
2017-12-21T00:25:26.185Z,42.58
2017-12-21T00:25:58.176Z,42.48
2017-12-21T00:26:30.237Z,42.58
2017-12-21T00:27:02.222Z,42.48
2017-12-21T00:27:34.242Z,42.68
2017-12-21T00:28:06.384Z,42.68
2017-12-21T00:28:38.354Z,42.68
2017-12-21T00:29:10.369Z,42.77
2017-12-21T00:29:42.385Z,42.77
2017-12-21T00:30:14.373Z,42.68
2017-12-21T00:30:46.402Z,42.68
2017-12-21T00:31:18.455Z,42.68
2017-12-21T00:31:50.472Z,42.87
2017-12-21T00:32:22.462Z,42.87
2017-12-21T00:32:54.467Z,42.77
2017-12-21T00:33:26.490Z,42.77
2017-12-21T00:33:58.468Z,42.77
2017-12-21T00:34:30.456Z,42.87
2017-12-21T00:35:02.479Z,42.77
2017-12-21T00:35:34.473Z,42.68
2017-12-21T00:36:06.378Z,42.77
2017-12-21T00:36:38.906Z,42.68
2017-12-21T00:37:11.602Z,42.77
2017-12-21T00:37:43.581Z,42.77
2017-12-21T00:38:15.557Z,42.77
2017-12-21T00:38:47.576Z,42.77
2017-12-21T00:39:19.598Z,42.77
2017-12-21T00:39:51.579Z,42.77
2017-12-21T00:40:24.416Z,42.77
2017-12-21T00:40:56.524Z,42.77
2017-12-21T00:41:28.558Z,42.77
2017-12-21T00:42:00.571Z,42.68
2017-12-21T00:42:32.572Z,42.68
2017-12-21T00:43:04.585Z,42.68
2017-12-21T00:43:36.577Z,42.68
2017-12-21T00:44:08.567Z,42.77
2017-12-21T00:44:40.597Z,42.77
2017-12-21T00:45:12.612Z,42.68
2017-12-21T00:45:44.631Z,42.77
2017-12-21T00:46:16.628Z,42.87
2017-12-21T00:46:48.576Z,42.77
2017-12-21T00:47:20.562Z,42.77
2017-12-21T00:47:52.506Z,42.77
2017-12-21T00:48:24.492Z,42.77
2017-12-21T00:48:56.477Z,42.68
2017-12-21T00:49:28.503Z,42.77
2017-12-21T00:50:00.514Z,42.77
2017-12-21T00:50:32.573Z,42.77
2017-12-21T00:51:04.551Z,42.87
2017-12-21T00:51:36.519Z,42.77
2017-12-21T00:52:08.477Z,42.77
2017-12-21T00:52:40.457Z,42.68
2017-12-21T00:53:12.440Z,42.87
2017-12-21T00:53:44.514Z,42.68
2017-12-21T00:54:16.540Z,42.77
2017-12-21T00:54:48.592Z,42.68
2017-12-21T00:55:20.609Z,42.87
2017-12-21T00:55:52.624Z,42.87
2017-12-21T00:56:24.639Z,42.87
2017-12-21T00:56:56.602Z,42.87
2017-12-21T00:57:28.608Z,42.68
2017-12-21T00:58:00.610Z,42.77
2017-12-21T00:58:32.628Z,42.87
2017-12-21T00:59:04.751Z,42.77
2017-12-21T00:59:36.740Z,42.77
2017-12-21T01:00:08.743Z,42.77
2017-12-21T01:00:40.706Z,42.77
2017-12-21T01:01:12.705Z,42.77
2017-12-21T01:01:44.732Z,42.77
2017-12-21T01:02:16.856Z,42.77
2017-12-21T01:02:48.850Z,42.77
2017-12-21T01:03:20.878Z,42.87
2017-12-21T01:03:52.896Z,42.77
2017-12-21T01:04:25.047Z,42.77
2017-12-21T01:04:57.017Z,42.77
2017-12-21T01:05:29.053Z,42.77
2017-12-21T01:06:01.033Z,42.77
2017-12-21T01:06:33.063Z,42.77
2017-12-21T01:07:05.059Z,42.87
2017-12-21T01:07:37.082Z,42.87
2017-12-21T01:08:09.120Z,42.87
2017-12-21T01:08:41.154Z,42.87
2017-12-21T01:09:13.133Z,42.77
2017-12-21T01:09:45.141Z,42.87
2017-12-21T01:10:17.119Z,42.87
2017-12-21T01:10:49.096Z,42.87
2017-12-21T01:11:21.119Z,42.77
2017-12-21T01:11:53.059Z,42.87
2017-12-21T01:12:25.033Z,42.77
2017-12-21T01:12:57.091Z,42.77
2017-12-21T01:13:29.103Z,42.87
2017-12-21T01:14:01.106Z,42.87
2017-12-21T01:14:33.078Z,42.87
2017-12-21T01:15:05.063Z,42.87
2017-12-21T01:15:37.025Z,42.97
2017-12-21T01:16:09.074Z,42.87
2017-12-21T01:16:41.051Z,42.77
2017-12-21T01:17:13.073Z,42.87
2017-12-21T01:17:45.066Z,42.97
2017-12-21T01:18:17.029Z,42.77
2017-12-21T01:18:49.152Z,42.97
2017-12-21T01:19:21.164Z,42.87
2017-12-21T01:19:53.198Z,42.97
2017-12-21T01:20:25.189Z,42.87
2017-12-21T01:20:57.197Z,43.06
2017-12-21T01:21:29.214Z,42.97
2017-12-21T01:22:01.198Z,42.97
2017-12-21T01:22:33.167Z,42.87
2017-12-21T01:23:05.280Z,42.87
2017-12-21T01:23:37.236Z,42.77
2017-12-21T01:24:09.231Z,43.06
2017-12-21T01:24:41.255Z,42.87
2017-12-21T01:25:13.285Z,42.87
2017-12-21T01:25:45.308Z,42.97
2017-12-21T01:26:17.364Z,42.87
2017-12-21T01:26:49.386Z,43.06
2017-12-21T01:27:21.436Z,42.87
2017-12-21T01:27:53.401Z,42.87
2017-12-21T01:28:25.349Z,42.87
2017-12-21T01:28:57.366Z,42.87
2017-12-21T01:29:29.344Z,42.87
2017-12-21T01:30:01.336Z,42.87
2017-12-21T01:30:33.301Z,42.87
2017-12-21T01:31:05.248Z,42.87
2017-12-21T01:31:37.281Z,42.87
2017-12-21T01:32:09.291Z,42.87
2017-12-21T01:32:41.287Z,42.77
2017-12-21T01:33:13.299Z,42.87
2017-12-21T01:33:45.412Z,42.97
2017-12-21T01:34:17.402Z,42.87
2017-12-21T01:34:49.406Z,42.87
2017-12-21T01:35:21.431Z,42.97
2017-12-21T01:35:53.412Z,42.87
2017-12-21T01:36:25.446Z,42.87
2017-12-21T01:36:57.438Z,42.97
2017-12-21T01:37:29.490Z,42.77
2017-12-21T01:38:02.251Z,42.97
2017-12-21T01:38:34.317Z,42.87
2017-12-21T01:39:06.325Z,42.87
2017-12-21T01:39:38.338Z,42.87
2017-12-21T01:40:10.348Z,42.77
2017-12-21T01:40:42.337Z,43.06
2017-12-21T01:41:14.336Z,43.06
2017-12-21T01:41:46.308Z,42.87
2017-12-21T01:42:18.355Z,42.68
2017-12-21T01:42:50.426Z,42.97
2017-12-21T01:43:22.487Z,42.97
2017-12-21T01:43:54.523Z,43.06
2017-12-21T01:44:26.536Z,43.06
2017-12-21T01:44:58.532Z,43.16
2017-12-21T01:45:30.597Z,43.06
2017-12-21T01:46:02.626Z,43.06
2017-12-21T01:46:34.628Z,42.87
2017-12-21T01:47:06.711Z,43.16
2017-12-21T01:47:38.695Z,42.97
2017-12-21T01:48:10.649Z,43.06
2017-12-21T01:48:42.797Z,42.68
2017-12-21T01:49:14.725Z,43.16
2017-12-21T01:49:46.705Z,43.06
2017-12-21T01:50:18.685Z,42.87
2017-12-21T01:50:50.725Z,43.16
2017-12-21T01:51:22.856Z,43.06
2017-12-21T01:51:54.944Z,42.97
2017-12-21T01:52:26.956Z,43.16
2017-12-21T01:52:58.946Z,42.87
2017-12-21T01:53:30.974Z,43.06
2017-12-21T01:54:02.998Z,43.16
2017-12-21T01:54:35.889Z,43.16
2017-12-21T01:55:07.915Z,42.97
2017-12-21T01:55:39.947Z,42.97
2017-12-21T01:56:11.947Z,43.06
2017-12-21T01:56:43.941Z,42.97
2017-12-21T01:57:15.946Z,43.16
2017-12-21T01:57:47.924Z,42.87
2017-12-21T01:58:19.946Z,42.87
2017-12-21T01:58:52.000Z,42.87
2017-12-21T01:59:24.001Z,42.87
2017-12-21T01:59:56.021Z,42.97
2017-12-21T02:00:28.025Z,43.06
2017-12-21T02:01:00.026Z,43.26
2017-12-21T02:01:32.015Z,42.77
2017-12-21T02:02:04.048Z,42.68
2017-12-21T02:02:36.038Z,42.97
2017-12-21T02:03:08.008Z,42.77
2017-12-21T02:03:40.022Z,42.68
2017-12-21T02:04:12.056Z,42.97
2017-12-21T02:04:44.083Z,42.77
2017-12-21T02:05:16.122Z,43.06
2017-12-21T02:05:48.131Z,43.06
2017-12-21T02:06:20.201Z,42.77
2017-12-21T02:06:52.936Z,42.68
2017-12-21T02:07:24.967Z,42.77
2017-12-21T02:07:56.928Z,42.77
2017-12-21T02:08:28.929Z,42.87
2017-12-21T02:09:00.971Z,42.87
2017-12-21T02:09:33.069Z,42.77
2017-12-21T02:10:05.056Z,42.68
2017-12-21T02:10:37.098Z,42.87
2017-12-21T02:11:09.068Z,43.06
2017-12-21T02:11:41.094Z,42.87
2017-12-21T02:12:13.064Z,42.97
2017-12-21T02:12:45.114Z,43.26
2017-12-21T02:13:17.126Z,42.68
2017-12-21T02:13:49.146Z,42.87
2017-12-21T02:14:21.128Z,42.68
2017-12-21T02:14:53.149Z,42.68
2017-12-21T02:15:25.158Z,42.77
2017-12-21T02:15:57.150Z,42.68
2017-12-21T02:16:29.126Z,43.26
2017-12-21T02:17:01.122Z,43.06
2017-12-21T02:17:33.119Z,42.87
2017-12-21T02:18:05.196Z,43.06
2017-12-21T02:18:37.286Z,42.58
2017-12-21T02:19:09.306Z,43.06
2017-12-21T02:19:41.324Z,42.77
2017-12-21T02:20:13.298Z,42.77
2017-12-21T02:20:45.318Z,42.68
2017-12-21T02:21:17.318Z,43.06
2017-12-21T02:21:49.418Z,43.26
2017-12-21T02:22:21.418Z,43.06
2017-12-21T02:22:53.443Z,43.06
2017-12-21T02:23:25.485Z,43.16
2017-12-21T02:23:57.520Z,42.68
2017-12-21T02:24:29.536Z,42.68
2017-12-21T02:25:01.566Z,42.68
2017-12-21T02:25:33.576Z,43.06
2017-12-21T02:26:05.557Z,42.87
2017-12-21T02:26:37.549Z,42.77
2017-12-21T02:27:09.514Z,43.06
2017-12-21T02:27:41.599Z,42.87
2017-12-21T02:28:14.052Z,42.68
2017-12-21T02:28:46.095Z,43.26
2017-12-21T02:29:18.166Z,42.77
2017-12-21T02:29:50.185Z,42.77
2017-12-21T02:30:22.179Z,42.68
2017-12-21T02:30:54.190Z,42.77
2017-12-21T02:31:26.222Z,43.26
2017-12-21T02:31:58.232Z,43.06
2017-12-21T02:32:30.279Z,43.26
2017-12-21T02:33:02.329Z,42.77
2017-12-21T02:33:34.337Z,42.68
2017-12-21T02:34:06.328Z,43.26
2017-12-21T02:34:38.350Z,43.16
2017-12-21T02:35:10.389Z,42.77
2017-12-21T02:35:42.461Z,43.26
2017-12-21T02:36:14.470Z,42.97
2017-12-21T02:36:46.524Z,42.97
2017-12-21T02:37:18.515Z,43.26
2017-12-21T02:37:50.484Z,42.97
2017-12-21T02:38:22.533Z,42.97
2017-12-21T02:38:54.476Z,43.26
2017-12-21T02:39:26.474Z,43.06
2017-12-21T02:39:58.491Z,42.77
2017-12-21T02:40:30.504Z,43.06
2017-12-21T02:41:02.512Z,42.97
2017-12-21T02:41:34.558Z,42.77
2017-12-21T02:42:06.550Z,42.97
2017-12-21T02:42:38.591Z,42.97
2017-12-21T02:43:10.556Z,42.97
2017-12-21T02:43:42.570Z,43.35
2017-12-21T02:44:14.537Z,42.77
2017-12-21T02:44:46.586Z,42.97
2017-12-21T02:45:18.592Z,42.97
2017-12-21T02:45:50.653Z,42.87
2017-12-21T02:46:22.731Z,42.97
2017-12-21T02:46:54.754Z,42.97
2017-12-21T02:47:26.775Z,42.97
2017-12-21T02:47:58.795Z,43.06
2017-12-21T02:48:30.836Z,42.97
2017-12-21T02:49:02.864Z,42.97
2017-12-21T02:49:34.885Z,42.97
2017-12-21T02:50:06.901Z,42.97
2017-12-21T02:50:38.911Z,42.97
2017-12-21T02:51:10.905Z,42.87
2017-12-21T02:51:42.948Z,42.87
2017-12-21T02:52:14.968Z,42.97
2017-12-21T02:52:46.953Z,42.97
2017-12-21T02:53:18.969Z,42.87
2017-12-21T02:53:50.984Z,42.97
2017-12-21T02:54:22.974Z,42.97
2017-12-21T02:54:55.008Z,42.87
2017-12-21T02:55:27.028Z,42.87
2017-12-21T02:55:59.116Z,42.97
2017-12-21T02:56:31.098Z,42.97
2017-12-21T02:57:03.138Z,42.97
2017-12-21T02:57:35.150Z,42.87
2017-12-21T02:58:07.153Z,42.97
2017-12-21T02:58:39.156Z,42.97
2017-12-21T02:59:11.266Z,42.97
2017-12-21T02:59:43.252Z,42.87
2017-12-21T03:00:15.269Z,42.97
2017-12-21T03:00:47.256Z,42.97
2017-12-21T03:01:19.230Z,42.87
2017-12-21T03:01:51.221Z,42.87
2017-12-21T03:02:23.212Z,42.97
2017-12-21T03:02:55.183Z,42.87
2017-12-21T03:03:27.225Z,42.87
2017-12-21T03:03:59.228Z,42.97
2017-12-21T03:04:31.223Z,42.97
2017-12-21T03:05:03.325Z,42.97
2017-12-21T03:05:35.336Z,42.97
2017-12-21T03:06:07.332Z,42.97
2017-12-21T03:06:40.088Z,42.97
2017-12-21T03:07:12.119Z,42.97
2017-12-21T03:07:44.132Z,42.97
2017-12-21T03:08:16.126Z,42.87
2017-12-21T03:08:48.216Z,42.87
2017-12-21T03:09:20.252Z,42.87
2017-12-21T03:09:52.252Z,42.87
2017-12-21T03:10:24.279Z,42.77
2017-12-21T03:10:56.323Z,42.97
2017-12-21T03:11:28.354Z,42.87
2017-12-21T03:12:00.994Z,42.87
2017-12-21T03:12:33.060Z,42.97
2017-12-21T03:13:05.159Z,42.77
2017-12-21T03:13:37.150Z,42.77
2017-12-21T03:14:09.176Z,42.97
2017-12-21T03:14:41.176Z,42.87
2017-12-21T03:15:13.283Z,42.97
2017-12-21T03:15:45.310Z,42.97
2017-12-21T03:16:17.319Z,42.97
2017-12-21T03:16:49.339Z,43.06
2017-12-21T03:17:21.340Z,42.77
2017-12-21T03:17:53.362Z,42.77
2017-12-21T03:18:25.523Z,42.77
2017-12-21T03:18:58.111Z,42.87
2017-12-21T03:19:30.122Z,42.97
2017-12-21T03:20:02.244Z,42.87
2017-12-21T03:20:34.262Z,43.06
2017-12-21T03:21:06.310Z,42.77
2017-12-21T03:21:38.294Z,42.97
2017-12-21T03:22:10.378Z,42.97
2017-12-21T03:22:42.393Z,42.97
2017-12-21T03:23:14.403Z,42.97
2017-12-21T03:23:46.502Z,42.87
2017-12-21T03:24:18.501Z,42.97
2017-12-21T03:24:50.540Z,42.77
2017-12-21T03:25:22.524Z,43.06
2017-12-21T03:25:55.408Z,43.06
2017-12-21T03:26:27.395Z,42.87
2017-12-21T03:26:59.437Z,43.06
2017-12-21T03:27:31.445Z,43.16
2017-12-21T03:28:03.429Z,42.87
2017-12-21T03:28:35.430Z,42.97
2017-12-21T03:29:07.437Z,42.87
2017-12-21T03:29:39.437Z,42.97
2017-12-21T03:30:11.421Z,43.06
2017-12-21T03:30:43.423Z,43.06
2017-12-21T03:31:16.200Z,42.97
2017-12-21T03:31:48.424Z,42.97
2017-12-21T03:32:20.439Z,43.06
2017-12-21T03:32:52.479Z,42.97
2017-12-21T03:33:24.475Z,42.97
2017-12-21T03:33:56.492Z,42.97
2017-12-21T03:34:28.491Z,42.97
2017-12-21T03:35:00.509Z,42.97
2017-12-21T03:35:32.556Z,42.97
2017-12-21T03:36:04.681Z,42.97
2017-12-21T03:36:36.695Z,42.97
2017-12-21T03:37:08.691Z,42.97
2017-12-21T03:37:40.768Z,43.06
2017-12-21T03:38:12.801Z,42.77
2017-12-21T03:38:44.793Z,43.16
2017-12-21T03:39:16.830Z,43.26
2017-12-21T03:39:48.847Z,42.97
2017-12-21T03:40:20.832Z,42.97
2017-12-21T03:40:52.853Z,43.06
2017-12-21T03:41:24.893Z,42.97
2017-12-21T03:41:56.892Z,42.97
2017-12-21T03:42:28.888Z,42.97
2017-12-21T03:43:00.908Z,43.06
2017-12-21T03:43:32.947Z,42.97
2017-12-21T03:44:04.994Z,42.87
2017-12-21T03:44:37.043Z,42.97
2017-12-21T03:45:09.068Z,43.06
2017-12-21T03:45:41.076Z,42.97
2017-12-21T03:46:13.149Z,43.06
2017-12-21T03:46:45.154Z,42.97
2017-12-21T03:47:17.167Z,43.16
2017-12-21T03:47:49.195Z,42.77
2017-12-21T03:48:21.178Z,43.06
2017-12-21T03:48:53.206Z,43.16
2017-12-21T03:49:25.223Z,42.97
2017-12-21T03:49:57.243Z,42.97
2017-12-21T03:50:29.276Z,43.26
2017-12-21T03:51:01.258Z,43.06
2017-12-21T03:51:33.264Z,43.06
2017-12-21T03:52:05.289Z,43.16
2017-12-21T03:52:37.263Z,43.16
2017-12-21T03:53:09.376Z,42.87
2017-12-21T03:53:41.397Z,43.06
2017-12-21T03:54:13.405Z,43.06
2017-12-21T03:54:45.400Z,43.16
2017-12-21T03:55:17.385Z,43.16
2017-12-21T03:55:49.396Z,43.16
2017-12-21T03:56:21.394Z,43.06
2017-12-21T03:56:53.385Z,43.06
2017-12-21T03:57:25.372Z,43.26
2017-12-21T03:57:57.462Z,43.06
2017-12-21T03:58:29.428Z,42.87
2017-12-21T03:59:01.410Z,43.26
2017-12-21T03:59:33.554Z,43.16
2017-12-21T04:00:05.569Z,43.06
2017-12-21T04:00:37.576Z,43.06
2017-12-21T04:01:09.547Z,43.16
2017-12-21T04:01:41.520Z,43.26
2017-12-21T04:02:13.512Z,43.06
2017-12-21T04:02:45.499Z,42.87
2017-12-21T04:03:17.505Z,43.06
2017-12-21T04:03:49.499Z,43.06
2017-12-21T04:04:21.535Z,43.26
2017-12-21T04:04:53.541Z,43.06
2017-12-21T04:05:25.590Z,43.16
2017-12-21T04:05:57.554Z,42.87
2017-12-21T04:06:29.550Z,43.06
2017-12-21T04:07:01.625Z,43.16
2017-12-21T04:07:33.620Z,43.16
2017-12-21T04:08:05.649Z,43.06
2017-12-21T04:08:37.636Z,43.06
2017-12-21T04:09:09.672Z,43.26
2017-12-21T04:09:41.694Z,43.16
2017-12-21T04:10:13.772Z,43.06
2017-12-21T04:10:45.805Z,43.06
2017-12-21T04:11:17.838Z,43.06
2017-12-21T04:11:49.804Z,43.16
2017-12-21T04:12:21.827Z,43.16
2017-12-21T04:12:53.816Z,43.16
2017-12-21T04:13:25.961Z,43.16
2017-12-21T04:13:57.941Z,43.16
2017-12-21T04:14:29.949Z,43.16
2017-12-21T04:15:01.930Z,42.97
2017-12-21T04:15:33.924Z,43.16
2017-12-21T04:16:05.993Z,43.16
2017-12-21T04:16:38.014Z,43.16
2017-12-21T04:17:10.022Z,43.06
2017-12-21T04:17:42.060Z,43.06
2017-12-21T04:18:14.095Z,43.14
2017-12-21T04:18:46.126Z,43.16
2017-12-21T04:19:18.237Z,43.06
2017-12-21T04:19:50.245Z,43.06
2017-12-21T04:20:22.244Z,43.06
2017-12-21T04:20:54.260Z,42.97
2017-12-21T04:21:26.292Z,43.06
2017-12-21T04:21:58.295Z,43.16
2017-12-21T04:22:30.313Z,43.14
2017-12-21T04:23:02.346Z,43.16
2017-12-21T04:23:34.355Z,43.26
2017-12-21T04:24:06.346Z,42.97
2017-12-21T04:24:38.402Z,42.97
2017-12-21T04:25:10.438Z,43.06
2017-12-21T04:25:42.482Z,43.16
2017-12-21T04:26:15.041Z,43.26
2017-12-21T04:26:47.062Z,43.06
2017-12-21T04:27:19.081Z,43.16
2017-12-21T04:27:51.084Z,43.06
2017-12-21T04:28:23.100Z,43.06
2017-12-21T04:28:55.128Z,43.16
2017-12-21T04:29:27.141Z,43.06
2017-12-21T04:29:59.132Z,43.16
2017-12-21T04:30:31.151Z,42.97
2017-12-21T04:31:03.165Z,43.06
2017-12-21T04:31:35.141Z,43.06
2017-12-21T04:32:07.186Z,43.06
2017-12-21T04:32:39.156Z,43.16
2017-12-21T04:33:11.188Z,43.16
2017-12-21T04:33:43.187Z,43.06
2017-12-21T04:34:15.287Z,42.97
2017-12-21T04:34:47.262Z,42.97
2017-12-21T04:35:19.278Z,43.16
2017-12-21T04:35:51.307Z,43.16
2017-12-21T04:36:23.326Z,42.97
2017-12-21T04:36:55.351Z,43.06
2017-12-21T04:37:27.400Z,43.06
2017-12-21T04:37:59.388Z,42.97
2017-12-21T04:38:31.419Z,43.16
2017-12-21T04:39:03.439Z,43.16
2017-12-21T04:39:35.435Z,43.06
2017-12-21T04:40:07.452Z,43.06
2017-12-21T04:40:39.505Z,43.06
2017-12-21T04:41:11.554Z,43.06
2017-12-21T04:41:43.531Z,43.16
2017-12-21T04:42:15.542Z,43.16
2017-12-21T04:42:47.557Z,43.06
2017-12-21T04:43:19.591Z,43.26
2017-12-21T04:43:51.613Z,43.26
2017-12-21T04:44:23.639Z,43.06
2017-12-21T04:44:55.638Z,43.16
2017-12-21T04:45:27.635Z,43.06
2017-12-21T04:45:59.648Z,43.16
2017-12-21T04:46:31.750Z,43.26
2017-12-21T04:47:04.722Z,43.06
2017-12-21T04:47:36.722Z,43.06
2017-12-21T04:48:08.744Z,43.16
2017-12-21T04:48:40.782Z,43.06
2017-12-21T04:49:12.782Z,43.16
2017-12-21T04:49:44.793Z,43.06
2017-12-21T04:50:16.832Z,43.16
2017-12-21T04:50:48.831Z,43.16
2017-12-21T04:51:20.855Z,43.16
2017-12-21T04:51:52.883Z,43.16
2017-12-21T04:52:24.922Z,43.16
2017-12-21T04:52:56.941Z,43.16
2017-12-21T04:53:28.975Z,43.16
2017-12-21T04:54:00.974Z,43.26
2017-12-21T04:54:32.987Z,43.16
2017-12-21T04:55:05.022Z,43.06
2017-12-21T04:55:37.058Z,43.16
2017-12-21T04:56:09.047Z,43.16
2017-12-21T04:56:41.064Z,43.16
2017-12-21T04:57:13.070Z,43.16
2017-12-21T04:57:45.087Z,43.16
2017-12-21T04:58:17.076Z,43.06
2017-12-21T04:58:49.109Z,43.45
2017-12-21T04:59:21.107Z,43.06
2017-12-21T04:59:53.121Z,43.16
2017-12-21T05:00:25.100Z,43.45
2017-12-21T05:00:57.144Z,43.16
2017-12-21T05:01:29.167Z,43.45
2017-12-21T05:02:01.171Z,43.35
2017-12-21T05:02:33.228Z,43.26
2017-12-21T05:03:05.281Z,43.45
2017-12-21T05:03:37.283Z,43.64
2017-12-21T05:04:09.277Z,43.26
2017-12-21T05:04:41.262Z,43.45
2017-12-21T05:05:13.261Z,43.45
2017-12-21T05:05:45.260Z,43.54
2017-12-21T05:06:17.292Z,43.45
2017-12-21T05:06:49.315Z,43.54
2017-12-21T05:07:21.356Z,43.54
2017-12-21T05:07:53.337Z,43.54
2017-12-21T05:08:25.381Z,43.45
2017-12-21T05:08:57.345Z,43.45
2017-12-21T05:09:29.400Z,43.54
2017-12-21T05:10:01.550Z,43.35
2017-12-21T05:10:33.637Z,43.54
2017-12-21T05:11:05.648Z,43.16
2017-12-21T05:11:37.644Z,43.35
2017-12-21T05:12:09.738Z,43.35
2017-12-21T05:12:41.760Z,43.45
2017-12-21T05:13:13.792Z,43.45
2017-12-21T05:13:45.796Z,43.64
2017-12-21T05:14:17.809Z,43.45
2017-12-21T05:14:49.851Z,43.35
2017-12-21T05:15:21.842Z,43.54
2017-12-21T05:15:54.636Z,43.45
2017-12-21T05:16:26.650Z,43.16
2017-12-21T05:16:58.625Z,43.45
2017-12-21T05:17:30.656Z,43.45
2017-12-21T05:18:02.716Z,43.35
2017-12-21T05:18:34.707Z,43.54
2017-12-21T05:19:06.669Z,43.64
2017-12-21T05:19:38.688Z,43.45
2017-12-21T05:20:10.671Z,43.45
2017-12-21T05:20:42.726Z,43.35
2017-12-21T05:21:14.783Z,43.35
2017-12-21T05:21:46.827Z,43.64
2017-12-21T05:22:18.839Z,43.35
2017-12-21T05:22:50.968Z,43.35
2017-12-21T05:23:22.979Z,43.45
2017-12-21T05:23:54.917Z,43.64
2017-12-21T05:24:26.971Z,43.35
2017-12-21T05:24:58.983Z,43.45
2017-12-21T05:25:30.970Z,43.54
2017-12-21T05:26:03.054Z,43.54
2017-12-21T05:26:35.083Z,43.35
2017-12-21T05:27:07.110Z,43.35
2017-12-21T05:27:39.150Z,43.35
2017-12-21T05:28:11.129Z,43.26
2017-12-21T05:28:43.161Z,43.45
2017-12-21T05:29:15.188Z,43.45
2017-12-21T05:29:47.214Z,43.45
2017-12-21T05:30:19.224Z,43.35
2017-12-21T05:30:51.315Z,43.45
2017-12-21T05:31:23.383Z,43.45
2017-12-21T05:31:55.378Z,43.54
2017-12-21T05:32:27.485Z,43.35
2017-12-21T05:32:59.499Z,43.45
2017-12-21T05:33:31.509Z,43.45
2017-12-21T05:34:03.543Z,43.54
2017-12-21T05:34:35.587Z,43.54
2017-12-21T05:35:07.592Z,43.35
2017-12-21T05:35:39.611Z,43.64
2017-12-21T05:36:11.630Z,43.45
2017-12-21T05:36:43.622Z,43.35
2017-12-21T05:37:15.647Z,43.54
2017-12-21T05:37:47.658Z,43.45
2017-12-21T05:38:19.664Z,43.45
2017-12-21T05:38:51.673Z,43.45
2017-12-21T05:39:23.676Z,43.45
2017-12-21T05:39:56.368Z,43.35
2017-12-21T05:40:28.418Z,43.54
2017-12-21T05:41:00.468Z,43.54
2017-12-21T05:41:32.474Z,43.16
2017-12-21T05:42:04.465Z,43.35
2017-12-21T05:42:36.500Z,43.45
2017-12-21T05:43:08.575Z,43.54
2017-12-21T05:43:40.594Z,43.26
2017-12-21T05:44:12.593Z,43.35
2017-12-21T05:44:44.618Z,43.54
2017-12-21T05:45:16.629Z,43.16
2017-12-21T05:45:48.625Z,43.26
2017-12-21T05:46:20.728Z,43.54
2017-12-21T05:46:52.746Z,43.54
2017-12-21T05:47:24.745Z,43.26
2017-12-21T05:47:56.750Z,43.26
2017-12-21T05:48:28.777Z,43.26
2017-12-21T05:49:00.748Z,43.54
2017-12-21T05:49:32.775Z,43.16
2017-12-21T05:50:04.792Z,43.16
2017-12-21T05:50:37.488Z,43.35
2017-12-21T05:51:09.560Z,43.26
2017-12-21T05:51:41.671Z,43.16
2017-12-21T05:52:13.642Z,43.06
2017-12-21T05:52:45.669Z,43.64
2017-12-21T05:53:17.680Z,43.35
2017-12-21T05:53:49.693Z,43.35
2017-12-21T05:54:21.696Z,43.35
2017-12-21T05:54:53.753Z,43.35
2017-12-21T05:55:25.721Z,43.26
2017-12-21T05:55:57.701Z,43.16
2017-12-21T05:56:29.674Z,43.16
2017-12-21T05:57:01.723Z,43.35
2017-12-21T05:57:33.726Z,43.26
2017-12-21T05:58:05.682Z,43.26
2017-12-21T05:58:37.715Z,43.35
2017-12-21T05:59:09.707Z,43.26
2017-12-21T05:59:41.724Z,43.64
2017-12-21T06:00:13.816Z,43.54
2017-12-21T06:00:45.851Z,43.16
2017-12-21T06:01:17.859Z,43.45
2017-12-21T06:01:49.863Z,43.16
2017-12-21T06:02:21.896Z,43.35
2017-12-21T06:02:53.912Z,43.26
2017-12-21T06:03:26.011Z,43.54
2017-12-21T06:03:57.973Z,43.16
2017-12-21T06:04:30.018Z,43.26
2017-12-21T06:05:02.044Z,43.35
2017-12-21T06:05:34.059Z,43.45
2017-12-21T06:06:06.031Z,43.45
2017-12-21T06:06:38.146Z,43.26
2017-12-21T06:07:10.130Z,43.35
2017-12-21T06:07:42.132Z,43.54
2017-12-21T06:08:14.157Z,43.64
2017-12-21T06:08:46.211Z,43.26
2017-12-21T06:09:18.183Z,43.35
2017-12-21T06:09:50.191Z,43.54
2017-12-21T06:10:22.191Z,43.45
2017-12-21T06:10:54.260Z,43.64
2017-12-21T06:11:26.804Z,43.26
2017-12-21T06:11:58.805Z,43.64
2017-12-21T06:12:30.799Z,43.45
2017-12-21T06:13:02.784Z,43.74
2017-12-21T06:13:34.803Z,43.64
2017-12-21T06:14:06.802Z,43.54
2017-12-21T06:14:38.790Z,43.64
2017-12-21T06:15:10.867Z,43.64
2017-12-21T06:15:42.880Z,43.64
2017-12-21T06:16:14.901Z,43.64
2017-12-21T06:16:46.886Z,43.45
2017-12-21T06:17:18.899Z,43.64
2017-12-21T06:17:50.904Z,43.64
2017-12-21T06:18:22.948Z,43.54
2017-12-21T06:18:55.581Z,43.45
2017-12-21T06:19:27.586Z,43.26
2017-12-21T06:19:59.584Z,43.54
2017-12-21T06:20:31.596Z,43.54
2017-12-21T06:21:03.629Z,43.45
2017-12-21T06:21:35.635Z,43.26
2017-12-21T06:22:07.647Z,43.45
2017-12-21T06:22:39.626Z,43.35
2017-12-21T06:23:11.592Z,43.26
2017-12-21T06:23:43.605Z,43.35
2017-12-21T06:24:15.576Z,43.54
2017-12-21T06:24:47.606Z,43.45
2017-12-21T06:25:19.676Z,43.45
2017-12-21T06:25:51.713Z,43.35
2017-12-21T06:26:23.683Z,43.35
2017-12-21T06:26:55.723Z,43.45
2017-12-21T06:27:27.784Z,43.45
2017-12-21T06:27:59.861Z,43.54
2017-12-21T06:28:31.852Z,43.35
2017-12-21T06:29:03.854Z,43.35
2017-12-21T06:29:35.854Z,43.35
2017-12-21T06:30:07.846Z,43.45
2017-12-21T06:30:39.841Z,43.26
2017-12-21T06:31:11.861Z,43.35
2017-12-21T06:31:43.887Z,43.35
2017-12-21T06:32:16.038Z,43.45
2017-12-21T06:32:48.032Z,43.26
2017-12-21T06:33:20.041Z,43.26
2017-12-21T06:33:52.105Z,43.35
2017-12-21T06:34:24.073Z,43.35
2017-12-21T06:34:56.150Z,43.35
2017-12-21T06:35:28.214Z,43.54
2017-12-21T06:36:00.286Z,43.45
2017-12-21T06:36:32.357Z,43.26
2017-12-21T06:37:04.358Z,43.35
2017-12-21T06:37:36.439Z,43.45
2017-12-21T06:38:08.485Z,43.45
2017-12-21T06:38:40.528Z,43.26
2017-12-21T06:39:12.531Z,43.35
2017-12-21T06:39:44.671Z,43.35
2017-12-21T06:40:16.730Z,43.35
2017-12-21T06:40:48.729Z,43.35
